Terminal Aerodrome Forecast
Issued by NWS Tampa Bay Area, FL

Home | Current Version | Previous Version | Text Only | Print | Product List | Glossary On
Versions: 1 2 3 4 5 6 7 8 9 10 11 12 13 14 15 16
000
FTUS42 KTBW 222200 AAB
TAFFMY
TAF AMD
KFMY 222255Z 2223/2318 VRB05KT P6SM VCTS SCT025CB BKN070
      TEMPO 2223/2224 VRB15G25KT 2SM TSRA SCT015 BKN025CB
     FM230000 19006KT P6SM VCTS SCT015CB BKN025
     FM230600 14004KT P6SM SCT020 BKN040
     FM231200 VRB03KT P6SM VCSH SCT025 BKN080
     FM231500 12007KT P6SM VCTS SCT035CB BKN100=

USA.gov is the U.S. government's official web portal to all federal, state and local government web resources and services.